createdAt,value
2022-12-08T00:00:54.191Z,12.1
2022-12-08T00:02:56.341Z,18.4
2022-12-08T00:05:01.793Z,21
2022-12-08T00:07:03.351Z,16.2
2022-12-08T00:09:05.350Z,12.7
2022-12-08T00:10:39.814Z,25
2022-12-08T00:12:09.936Z,21.5
2022-12-08T00:14:11.957Z,13.9
2022-12-08T00:18:19.088Z,21.8
2022-12-08T00:20:21.078Z,10.5
2022-12-08T00:34:38.277Z,10.6
2022-12-08T00:36:40.279Z,23.8
2022-12-08T00:38:42.262Z,27
2022-12-08T00:40:44.298Z,17.5
2022-12-08T00:42:47.310Z,16.2
2022-12-08T00:44:50.855Z,14.3
2022-12-08T00:46:55.962Z,28.8
2022-12-08T00:48:57.970Z,19.6
2022-12-08T00:50:59.982Z,16.7
2022-12-08T00:55:03.997Z,22.7
2022-12-08T00:57:06.028Z,29.3
2022-12-08T00:59:07.995Z,27.3
2022-12-08T01:01:13.224Z,17.1
2022-12-08T01:03:15.353Z,15.3
2022-12-08T01:05:17.174Z,17.2
2022-12-08T01:06:19.752Z,20.4
2022-12-08T01:08:21.910Z,18.8
2022-12-08T01:10:23.774Z,15.4
2022-12-08T01:14:30.927Z,20.7
2022-12-08T01:16:33.010Z,16.1
2022-12-08T01:18:34.968Z,21
2022-12-08T01:20:36.979Z,20
2022-12-08T01:22:39.002Z,22.7
2022-12-08T01:24:41.004Z,17
2022-12-08T01:28:48.206Z,14.6
2022-12-08T01:30:50.235Z,19.9
2022-12-08T01:32:52.194Z,16.7
2022-12-08T01:34:54.220Z,24.4
2022-12-08T01:38:58.275Z,16.3
2022-12-08T01:41:00.268Z,12.6
2022-12-08T01:45:07.431Z,17.3
2022-12-08T01:47:09.472Z,21.9
2022-12-08T01:49:11.471Z,24.6
2022-12-08T01:51:13.484Z,18.4
2022-12-08T01:53:15.498Z,14.7
2022-12-08T01:55:17.489Z,25
2022-12-08T01:59:24.704Z,23.4
2022-12-08T02:01:26.767Z,19.6
2022-12-08T02:02:29.368Z,27
2022-12-08T02:10:40.551Z,27
2022-12-08T02:12:42.570Z,17.7
2022-12-08T02:16:46.659Z,27.8
2022-12-08T02:19:02.088Z,22.1
2022-12-08T02:20:50.708Z,20.3
2022-12-08T02:22:52.748Z,20
2022-12-08T02:24:57.919Z,19.2
2022-12-08T02:26:59.942Z,17.6
2022-12-08T02:29:01.976Z,24
2022-12-08T02:31:04.023Z,23.1
2022-12-08T02:33:06.014Z,20
2022-12-08T02:35:08.031Z,25.5
2022-12-08T02:37:10.073Z,24.2
2022-12-08T02:39:15.269Z,23.6
2022-12-08T02:41:17.296Z,23.2
2022-12-08T02:43:19.305Z,23.2
2022-12-08T02:45:21.339Z,18.8
2022-12-08T02:51:27.425Z,17.5
2022-12-08T02:53:32.607Z,19.8
2022-12-08T02:55:34.643Z,27.9
2022-12-08T02:57:36.671Z,18.7
2022-12-08T03:02:02.014Z,15.5
2022-12-08T03:04:03.856Z,13.4
2022-12-08T03:06:09.077Z,21.9
2022-12-08T03:08:11.175Z,22.9
2022-12-08T03:10:13.160Z,13.9
2022-12-08T03:12:15.147Z,17.1
2022-12-08T03:14:17.205Z,16.7
2022-12-08T03:16:19.266Z,14.1
2022-12-08T03:20:26.422Z,19.3
2022-12-08T03:22:28.476Z,15.2
2022-12-08T03:24:30.504Z,14.2
2022-12-08T03:26:32.537Z,14.5
2022-12-08T03:28:34.550Z,20.5
2022-12-08T03:30:36.572Z,17.3
2022-12-08T03:32:38.572Z,17.2
2022-12-08T03:34:43.774Z,15.4
2022-12-08T03:36:45.783Z,13.1
2022-12-08T03:38:47.811Z,14.6
2022-12-08T03:40:49.807Z,21.2
2022-12-08T03:42:51.836Z,19
2022-12-08T03:44:53.860Z,13.4
2022-12-08T03:46:55.875Z,22.5
2022-12-08T03:49:01.060Z,24.4
2022-12-08T03:51:03.055Z,19.5
2022-12-08T03:53:05.074Z,25.3
2022-12-08T03:54:07.679Z,26.1
2022-12-08T04:00:13.713Z,26.4
2022-12-08T04:02:18.946Z,22.5
2022-12-08T04:06:22.938Z,23.1
2022-12-08T04:08:25.046Z,22.6
2022-12-08T04:10:26.977Z,22.6
2022-12-08T04:16:36.239Z,21.9
2022-12-08T04:18:38.205Z,18.4
2022-12-08T04:20:40.225Z,24.7
2022-12-08T04:22:42.245Z,20.4
2022-12-08T04:24:44.286Z,16.9
2022-12-08T04:26:46.317Z,19.1
2022-12-08T04:28:48.301Z,17.1
2022-12-08T04:30:53.590Z,11.4
2022-12-08T04:32:55.538Z,18.6
2022-12-08T04:34:57.573Z,19.4
2022-12-08T04:36:59.599Z,17.3
2022-12-08T04:39:01.617Z,18.5
2022-12-08T04:41:03.613Z,20.8
2022-12-08T04:43:05.658Z,17.5
2022-12-08T04:45:10.855Z,21.1
2022-12-08T04:47:12.924Z,15.5
2022-12-08T04:49:14.906Z,16.4
2022-12-08T04:50:17.467Z,11.4
2022-12-08T04:54:21.528Z,11.2
2022-12-08T04:56:23.550Z,19.1
2022-12-08T05:00:30.783Z,14.2
2022-12-08T05:02:32.903Z,11.6
2022-12-08T05:04:34.805Z,17.8
2022-12-08T05:06:36.825Z,15.2
2022-12-08T05:08:38.864Z,16.7
2022-12-08T05:12:46.090Z,15.9
2022-12-08T05:14:48.129Z,16.6
2022-12-08T05:16:50.205Z,19.1
2022-12-08T05:18:52.167Z,16.1
2022-12-08T05:20:54.194Z,14.4
2022-12-08T05:22:56.217Z,18.3
2022-12-08T05:27:03.426Z,17.4
2022-12-08T05:29:05.442Z,14.2
2022-12-08T05:31:07.506Z,17.5
2022-12-08T05:33:09.502Z,14.9
2022-12-08T05:35:11.529Z,25.9
2022-12-08T05:37:13.560Z,14.2
2022-12-08T05:39:15.596Z,16.4
2022-12-08T05:41:20.778Z,11.7
2022-12-08T05:43:22.804Z,9.4
2022-12-08T05:45:24.891Z,15.4
2022-12-08T05:46:27.486Z,11.3
2022-12-08T05:48:29.456Z,11.4
2022-12-08T05:50:31.501Z,12.1
2022-12-08T05:52:33.527Z,9.1
2022-12-08T05:54:38.690Z,15.5
2022-12-08T05:56:40.729Z,11
2022-12-08T05:58:42.780Z,9.7
2022-12-08T06:00:44.796Z,9.9
2022-12-08T06:02:46.934Z,7.3
2022-12-08T06:08:56.044Z,12.1
2022-12-08T06:10:58.080Z,10
2022-12-08T06:13:00.132Z,7.4
2022-12-08T06:15:02.141Z,6.5
2022-12-08T06:17:04.187Z,6.2
2022-12-08T06:19:06.169Z,9.1
2022-12-08T06:21:08.225Z,5.5
2022-12-08T06:23:13.387Z,8
2022-12-08T06:25:15.412Z,9.5
2022-12-08T06:27:17.435Z,4.1
2022-12-08T06:29:19.458Z,6.3
2022-12-08T06:31:21.575Z,6.7
2022-12-08T06:33:23.497Z,4.5
2022-12-08T06:35:25.493Z,6.1
2022-12-08T06:39:34.227Z,8.3
2022-12-08T06:43:59.318Z,8.5
2022-12-08T06:46:01.400Z,7.4
2022-12-08T06:48:03.362Z,11.1
2022-12-08T06:50:08.625Z,21.6
2022-12-08T06:52:10.541Z,10
2022-12-08T06:54:12.547Z,8.3
2022-12-08T06:56:14.566Z,6.2
2022-12-08T06:58:16.633Z,5.7
2022-12-08T07:00:18.634Z,9.9
2022-12-08T07:02:20.677Z,16.8
2022-12-08T07:04:25.782Z,8.6
2022-12-08T07:06:27.825Z,6.3
2022-12-08T07:08:29.946Z,7.6
2022-12-08T07:10:31.858Z,7.6
2022-12-08T07:12:33.879Z,11.8
2022-12-08T07:14:35.992Z,6.9
2022-12-08T07:16:37.918Z,10
2022-12-08T07:18:43.094Z,14.3
2022-12-08T07:20:45.101Z,12
2022-12-08T07:28:53.131Z,10.9
2022-12-08T07:35:02.316Z,11.6
2022-12-08T07:37:04.324Z,11.1
2022-12-08T07:38:06.903Z,11.3
2022-12-08T07:44:12.929Z,17.5
2022-12-08T07:46:18.156Z,14.7
2022-12-08T07:48:20.105Z,12.5
2022-12-08T07:50:22.136Z,15.3
2022-12-08T07:52:24.134Z,13.2
2022-12-08T07:54:26.141Z,10.6
2022-12-08T07:56:28.141Z,12.2
2022-12-08T07:58:30.143Z,20.3
2022-12-08T08:00:35.371Z,16
2022-12-08T08:02:37.419Z,13.1
2022-12-08T08:04:39.449Z,13.5
2022-12-08T08:06:41.349Z,15.7
2022-12-08T08:08:43.352Z,10.4
2022-12-08T08:10:45.387Z,15.3
2022-12-08T08:12:47.365Z,15.8
2022-12-08T08:14:52.519Z,15.8
2022-12-08T08:16:54.664Z,15.5
2022-12-08T08:18:56.542Z,12.7
2022-12-08T08:21:06.701Z,10.1
2022-12-08T08:23:00.547Z,9.6
2022-12-08T08:25:02.573Z,13.6
2022-12-08T08:27:04.590Z,24.1
2022-12-08T08:29:09.756Z,14.5
2022-12-08T08:31:11.833Z,19.8
2022-12-08T08:33:13.743Z,14.3
2022-12-08T08:34:16.336Z,11.3
2022-12-08T08:36:18.401Z,13
2022-12-08T08:40:22.375Z,11.8
2022-12-08T08:42:27.525Z,17.8
2022-12-08T08:48:33.556Z,10.1
2022-12-08T08:50:37.668Z,16.2
2022-12-08T08:56:44.765Z,8.2
2022-12-08T08:58:46.760Z,12.4
2022-12-08T09:00:48.787Z,12.6
2022-12-08T09:02:50.782Z,9.8
2022-12-08T09:04:52.977Z,9.8
2022-12-08T09:06:54.908Z,10.7
2022-12-08T09:08:56.862Z,9.4
2022-12-08T09:11:02.001Z,7.2
2022-12-08T09:13:04.046Z,10.1
2022-12-08T09:15:06.055Z,11.2
2022-12-08T09:17:08.095Z,11.5
2022-12-08T09:19:10.117Z,15.7
2022-12-08T09:21:12.120Z,14.8
2022-12-08T09:23:14.136Z,11.6
2022-12-08T09:25:19.324Z,10.4
2022-12-08T09:29:24.360Z,15.9
2022-12-08T09:30:25.920Z,8.2
2022-12-08T09:32:27.943Z,13
2022-12-08T09:34:30.003Z,11.4
2022-12-08T09:36:31.982Z,11.5
2022-12-08T09:38:37.128Z,11.1
2022-12-08T09:40:39.156Z,17.7
2022-12-08T09:44:43.214Z,11.2
2022-12-08T09:46:45.331Z,12.6
2022-12-08T09:48:47.218Z,13.7
2022-12-08T09:50:49.249Z,13.2
2022-12-08T09:56:58.426Z,7.8
2022-12-08T09:59:00.453Z,12.8
2022-12-08T10:01:02.461Z,11.4
2022-12-08T10:03:04.508Z,11.9
2022-12-08T10:09:15.216Z,12.3
2022-12-08T10:11:15.757Z,14.1
2022-12-08T10:13:17.798Z,7.4
2022-12-08T10:15:19.793Z,8.5
2022-12-08T10:19:23.819Z,9.8
2022-12-08T10:21:29.030Z,12.7
2022-12-08T10:23:31.088Z,9.4
2022-12-08T10:25:33.108Z,10.4
2022-12-08T10:27:56.083Z,9.9
2022-12-08T10:29:58.120Z,9.1
2022-12-08T10:32:00.258Z,9.2
2022-12-08T10:34:05.321Z,9.4
2022-12-08T10:36:07.314Z,8.8
2022-12-08T10:38:09.368Z,7.1
2022-12-08T10:42:13.434Z,16
2022-12-08T10:44:15.447Z,7
2022-12-08T10:46:17.518Z,10
2022-12-08T10:48:22.634Z,7.9
2022-12-08T10:50:24.695Z,10.3
2022-12-08T10:52:26.713Z,12.6
2022-12-08T10:54:28.748Z,6.1
2022-12-08T10:56:30.748Z,7
2022-12-08T10:58:32.788Z,11.2
2022-12-08T11:00:34.968Z,10.7
2022-12-08T11:04:42.019Z,5.6
2022-12-08T11:06:44.040Z,7.7
2022-12-08T11:08:46.056Z,6.6
2022-12-08T11:10:48.096Z,6.6
2022-12-08T11:12:50.168Z,4.1
2022-12-08T11:14:52.298Z,14.7
2022-12-08T11:16:57.451Z,4.5
2022-12-08T11:18:59.417Z,4.2
2022-12-08T11:24:06.074Z,3.6
2022-12-08T11:26:08.094Z,4.9
2022-12-08T11:38:23.423Z,6.2
2022-12-08T11:40:25.462Z,8.3
2022-12-08T11:48:36.747Z,9.2
2022-12-08T11:50:38.757Z,12.3
2022-12-08T11:52:40.804Z,4.4
2022-12-08T12:00:52.092Z,3.5
2022-12-08T12:02:54.266Z,7.1
2022-12-08T12:04:56.213Z,3.8
2022-12-08T12:06:58.217Z,3.3
2022-12-08T12:09:00.272Z,7.7
2022-12-08T12:11:02.357Z,3.9
2022-12-08T12:13:07.535Z,3.7
2022-12-08T12:15:09.558Z,3.9
2022-12-08T12:20:16.271Z,16.5
2022-12-08T12:22:18.293Z,3.8
2022-12-08T12:24:25.513Z,5.2
2022-12-08T12:26:27.059Z,20
2022-12-08T12:28:29.060Z,3.7
2022-12-08T12:30:31.164Z,4.1
2022-12-08T12:34:35.133Z,4.9
2022-12-08T12:36:37.366Z,4.4
2022-12-08T12:38:39.411Z,6.2
2022-12-08T12:42:46.630Z,4
2022-12-08T12:44:48.661Z,4.4
2022-12-08T12:46:50.711Z,7.8
2022-12-08T12:48:52.761Z,2.9
2022-12-08T12:50:54.796Z,3.8
2022-12-08T12:52:56.809Z,4.6
2022-12-08T12:55:02.005Z,3.4
2022-12-08T12:59:06.127Z,5.3
2022-12-08T13:01:08.163Z,2
2022-12-08T13:03:10.178Z,9.8
2022-12-08T13:05:12.239Z,3.9
2022-12-08T13:07:14.350Z,2.9
2022-12-08T13:09:19.512Z,3.3
2022-12-08T13:11:21.514Z,11.3
2022-12-08T13:14:26.149Z,3.5
2022-12-08T13:16:28.216Z,4.2
2022-12-08T13:18:30.193Z,2.8
2022-12-08T13:20:32.217Z,4.7
2022-12-08T13:22:37.415Z,4.4
2022-12-08T13:24:39.514Z,4.6
2022-12-08T13:26:41.491Z,6.1
2022-12-08T13:28:43.598Z,5.5
2022-12-08T13:30:46.572Z,3.8
2022-12-08T13:33:16.895Z,2.8
2022-12-08T13:36:55.831Z,3.4
2022-12-08T13:38:57.862Z,2.3
2022-12-08T13:40:59.885Z,2.4
2022-12-08T13:43:01.886Z,5.6
2022-12-08T13:45:30.159Z,4.4
2022-12-08T13:56:37.283Z,2.8
2022-12-08T13:57:19.672Z,9.8
2022-12-08T13:59:21.402Z,2.7
2022-12-08T14:01:23.553Z,3
2022-12-08T14:03:25.496Z,4.5
2022-12-08T14:06:03.395Z,1.8
2022-12-08T14:09:34.733Z,5.3
2022-12-08T14:11:57.772Z,2.3
2022-12-08T14:16:01.873Z,6.4
2022-12-08T14:20:08.992Z,21.9
2022-12-08T14:22:11.014Z,3
2022-12-08T14:24:13.031Z,17
2022-12-08T14:26:15.037Z,3.5
2022-12-08T14:28:17.081Z,3.3
2022-12-08T14:30:19.068Z,3.5
2022-12-08T14:32:24.246Z,10.7
2022-12-08T14:34:26.251Z,3.3
2022-12-08T14:36:28.295Z,2.8
2022-12-08T14:38:30.439Z,4
2022-12-08T14:40:32.333Z,3.4
2022-12-08T14:42:34.350Z,3
2022-12-08T14:44:36.356Z,6
2022-12-08T14:46:41.553Z,2.5
2022-12-08T14:48:43.561Z,5.8
2022-12-08T14:50:45.570Z,4.5
2022-12-08T14:52:47.586Z,3
2022-12-08T14:54:49.599Z,3.8
2022-12-08T14:56:51.641Z,7
2022-12-08T14:58:53.629Z,8
2022-12-08T15:00:58.803Z,10.4
2022-12-08T15:03:00.801Z,4.3
2022-12-08T15:05:02.949Z,10.5
2022-12-08T15:08:07.457Z,5.5
2022-12-08T15:10:09.420Z,6.4
2022-12-08T15:12:11.446Z,12.5
2022-12-08T15:14:16.643Z,3.8
2022-12-08T15:16:18.741Z,5
2022-12-08T15:18:20.669Z,4
2022-12-08T15:20:22.667Z,4
2022-12-08T15:22:24.656Z,6
2022-12-08T15:24:26.751Z,4.2
2022-12-08T15:26:28.728Z,5.1
2022-12-08T15:28:33.902Z,10.1
2022-12-08T15:30:35.901Z,6.2
2022-12-08T15:32:37.929Z,14.3
2022-12-08T15:34:39.943Z,5.4
2022-12-08T15:36:41.958Z,5.1
2022-12-08T15:38:43.955Z,5.3
2022-12-08T15:40:45.990Z,6.5
2022-12-08T15:42:51.142Z,4.8
2022-12-08T15:44:53.163Z,7.6
2022-12-08T15:46:55.312Z,6.2
2022-12-08T15:48:58.263Z,10
2022-12-08T15:50:59.170Z,7.8
2022-12-08T15:53:01.167Z,7.4
2022-12-08T15:55:03.191Z,6.3
2022-12-08T15:57:19.578Z,11.6
2022-12-08T15:59:10.333Z,9.7
2022-12-08T16:01:12.402Z,8.3
2022-12-08T16:15:47.316Z,8.9
2022-12-08T16:16:32.101Z,14.2
2022-12-08T16:18:34.094Z,17.4
2022-12-08T16:21:06.588Z,15.1
2022-12-08T16:24:43.265Z,17
2022-12-08T16:27:57.911Z,18.5
2022-12-08T16:28:54.009Z,15.7
2022-12-08T16:30:49.287Z,19.7
2022-12-08T16:32:51.337Z,23.6
2022-12-08T16:34:53.299Z,18.4
2022-12-08T16:36:55.322Z,18.8
2022-12-08T16:41:03.118Z,19.6
2022-12-08T16:43:05.138Z,23.7
2022-12-08T16:45:07.456Z,19.5
2022-12-08T16:47:09.318Z,23
2022-12-08T16:51:13.165Z,25.8
2022-12-08T16:57:22.307Z,32.3
2022-12-08T16:58:24.887Z,31
2022-12-08T17:00:26.897Z,32.9
2022-12-08T17:04:32.102Z,34.2
2022-12-08T17:12:42.044Z,25.7
2022-12-08T17:14:44.038Z,26.5
2022-12-08T17:16:46.131Z,25.2
2022-12-08T17:20:53.221Z,26.4
2022-12-08T17:24:57.242Z,25.4
2022-12-08T17:26:59.203Z,40.9
2022-12-08T17:29:01.644Z,31.3
2022-12-08T17:31:03.259Z,29.5
2022-12-08T17:33:05.179Z,34
2022-12-08T17:35:10.366Z,38.7
2022-12-08T17:37:12.311Z,35.4
2022-12-08T17:39:18.352Z,47.5
2022-12-08T17:41:16.927Z,46.8
2022-12-08T17:43:18.693Z,38
2022-12-08T17:45:20.677Z,36.8
2022-12-08T17:47:22.669Z,32.3
2022-12-08T17:49:27.810Z,38.7
2022-12-08T17:53:37.090Z,34
2022-12-08T17:55:54.735Z,32.3
2022-12-08T17:57:56.580Z,33.9
2022-12-08T17:59:58.554Z,34.6
2022-12-08T18:02:03.771Z,36.3
2022-12-08T18:04:05.705Z,36.7
2022-12-08T18:06:07.701Z,29.8
2022-12-08T18:08:09.806Z,41.9
2022-12-08T18:10:11.684Z,28.5
2022-12-08T18:12:15.285Z,31.8
2022-12-08T18:18:24.480Z,37.7
2022-12-08T18:20:26.328Z,39.1
2022-12-08T18:22:28.336Z,38.3
2022-12-08T18:24:30.309Z,40.1
2022-12-08T18:26:32.311Z,34.5
2022-12-08T18:28:34.320Z,37.4
2022-12-08T18:32:41.448Z,47.7
2022-12-08T18:34:43.453Z,39.2
2022-12-08T18:36:45.440Z,29.6
2022-12-08T18:38:47.452Z,37.1
2022-12-08T18:40:49.469Z,32.3
2022-12-08T18:42:51.447Z,32.1
2022-12-08T18:46:58.707Z,36.9
2022-12-08T18:49:00.629Z,32.4
2022-12-08T18:56:09.202Z,36.2
2022-12-08T18:58:14.330Z,33.9
2022-12-08T19:04:28.247Z,33.6
2022-12-08T19:06:22.336Z,36
2022-12-08T19:08:29.725Z,40.7
2022-12-08T19:10:26.342Z,37.2
2022-12-08T19:12:31.475Z,48.1
2022-12-08T19:14:33.487Z,58
2022-12-08T19:16:35.525Z,48.1
2022-12-08T19:18:37.504Z,40.9
2022-12-08T19:20:39.501Z,48.4
2022-12-08T19:22:41.494Z,46.8
2022-12-08T19:24:43.514Z,53.8
2022-12-08T19:26:48.724Z,47.8
2022-12-08T19:28:50.662Z,50.8
2022-12-08T19:30:52.770Z,46.5
2022-12-08T19:32:54.664Z,44.2
2022-12-08T19:34:56.675Z,49.7
2022-12-08T19:36:58.677Z,50
2022-12-08T19:39:00.682Z,55.8
2022-12-08T19:41:05.838Z,54.1
2022-12-08T19:43:07.898Z,61.3
2022-12-08T19:45:10.106Z,62.9
2022-12-08T19:46:12.564Z,73.6
2022-12-08T19:48:14.439Z,59
2022-12-08T19:50:16.455Z,67.1
2022-12-08T19:52:18.460Z,53.9
2022-12-08T19:54:23.626Z,68
2022-12-08T19:56:25.850Z,58.3
2022-12-08T19:58:27.650Z,60.3
2022-12-08T20:00:29.645Z,62.6
2022-12-08T20:02:31.796Z,82.6
2022-12-08T20:04:33.727Z,58.5
2022-12-08T20:06:35.679Z,53.3
2022-12-08T20:10:42.854Z,47.8
2022-12-08T20:12:44.919Z,52.9
2022-12-08T20:14:46.898Z,47.2
2022-12-08T20:16:49.000Z,59.6
2022-12-08T20:18:50.952Z,59.6
2022-12-08T20:20:53.042Z,45.8
2022-12-08T20:22:58.126Z,59.6
2022-12-08T20:25:01.160Z,59
2022-12-08T20:27:02.163Z,64.6
2022-12-08T20:29:04.166Z,71.7
2022-12-08T20:31:06.249Z,54.2
2022-12-08T20:35:10.194Z,54
2022-12-08T20:42:21.978Z,66.5
2022-12-08T20:58:41.288Z,75.2
2022-12-08T21:00:43.482Z,80.2
2022-12-08T21:02:50.883Z,77.6
2022-12-08T21:04:50.626Z,81.1
2022-12-08T21:06:52.544Z,69.5
2022-12-08T21:08:54.639Z,56.2
2022-12-08T21:10:56.742Z,52.5
2022-12-08T21:12:58.683Z,62.8
2022-12-08T21:15:00.666Z,60.4
2022-12-08T21:17:02.794Z,56.8
2022-12-08T21:19:07.872Z,62.7
2022-12-08T21:21:09.776Z,60.7
2022-12-08T21:23:11.810Z,59.1
2022-12-08T21:25:13.815Z,63.1
2022-12-08T21:27:15.865Z,62.7
2022-12-08T21:29:18.004Z,57.7
2022-12-08T21:33:25.070Z,66.4
2022-12-08T21:35:27.040Z,60.1
2022-12-08T21:37:29.248Z,56.2
2022-12-08T21:39:52.234Z,65.8
2022-12-08T21:41:54.156Z,68.6
2022-12-08T21:46:01.425Z,70.2
2022-12-08T21:48:07.388Z,52
2022-12-08T21:50:06.069Z,64.4
2022-12-08T21:52:07.592Z,69.9
2022-12-08T21:54:13.572Z,71.9
2022-12-08T21:56:11.449Z,67.8
2022-12-08T21:58:13.559Z,62.9
2022-12-08T22:00:18.629Z,74
2022-12-08T22:02:22.638Z,68.1
2022-12-08T22:04:22.755Z,69.1
2022-12-08T22:06:24.855Z,72.3
2022-12-08T22:08:26.769Z,72.1
2022-12-08T22:14:35.949Z,76.3
2022-12-08T22:16:38.055Z,69.7
2022-12-08T22:20:44.077Z,73.2
2022-12-08T22:22:44.015Z,60.5
2022-12-08T22:24:46.042Z,66
2022-12-08T22:26:48.033Z,69
2022-12-08T22:28:53.465Z,80.4
2022-12-08T22:30:55.247Z,67.7
2022-12-08T22:32:57.557Z,74.7
2022-12-08T22:33:59.866Z,72.9
2022-12-08T22:36:08.134Z,70.9
2022-12-08T22:38:03.853Z,74.8
2022-12-08T22:40:06.418Z,83.4
2022-12-08T22:42:11.232Z,76.4
2022-12-08T22:44:13.107Z,79
2022-12-08T22:46:15.149Z,79.2
2022-12-08T22:48:17.153Z,77.4
2022-12-08T22:50:19.168Z,78.3
2022-12-08T22:52:21.302Z,83.2
2022-12-08T22:54:23.234Z,83.6
2022-12-08T22:56:28.507Z,83.4
2022-12-08T22:58:30.411Z,83.4
2022-12-08T23:00:32.461Z,90.7
2022-12-08T23:02:34.441Z,84.2
2022-12-08T23:04:36.629Z,77.5
2022-12-08T23:06:38.693Z,70.9
2022-12-08T23:08:40.745Z,95.8
2022-12-08T23:10:45.879Z,82.1
2022-12-08T23:12:47.711Z,92.4
2022-12-08T23:16:51.790Z,80
2022-12-08T23:18:53.740Z,86.9
2022-12-08T23:20:56.000Z,87.4
2022-12-08T23:22:57.822Z,91.3
2022-12-08T23:25:03.047Z,85.2
2022-12-08T23:27:05.102Z,102
2022-12-08T23:29:06.974Z,87.7
2022-12-08T23:30:10.209Z,85.4
2022-12-08T23:32:11.810Z,84
2022-12-08T23:34:13.883Z,76.6
2022-12-08T23:36:15.685Z,88.7
2022-12-08T23:38:20.804Z,90.1
2022-12-08T23:40:22.924Z,86.6
2022-12-08T23:42:24.860Z,88.8
2022-12-08T23:44:26.968Z,94
2022-12-08T23:46:29.206Z,88.5
2022-12-08T23:48:31.010Z,82.2
2022-12-08T23:50:33.003Z,85.1
2022-12-08T23:52:39.807Z,83.1
2022-12-08T23:54:40.119Z,84.5
2022-12-08T23:56:42.266Z,94.4
2022-12-08T23:58:44.193Z,84.2
